Weather
South African Flight Training AcademyBookingsEnt 1055(rendered 2016-08-30 16:55:06) Member: Guest [54.198.255.155- private]
Go back one day  Today  Go forward one day
00h00-24h00  00h00-12h00  12h00-24h00  05h00-22h00  08h00-18h00   Bookingsheet Key 

Sunrise: 05:47B

Full view Bookings for Tuesday, 30th August 2016

Sunset: 18:29B

 05h0006h0007h0008h0009h0010h0011h0012h0013h0014h0015h0016h0017h0018h0019h0020h0021h00

ZS-EVM

Piper 4 Seater Fixed Gear Fixed Pitch

ZS-FHF

Piper 4 Seater Fixed Gear Fixed Pitch

ZS-IHJ

Raytheon Private Aircraft

ZS-JBP

Cessna 4 Seater Fixed Gear/Pitch

ZS-JPH

Beechcraft Private Aircraft

ZS-JVH

Cessna 4 Seater Fixed Gear/Pitch

ZS-KXO

Cessna 4 Seater Trainer

ZS-KZE

Beechcraft Private Aircraft

ZS-MAE

Cessna 4 Seater Fixed Gear/Pitch

ZS-MPF

Cessna 4 Seater Fixed Gear/Pitch

ZS-NFS

Cessna 4 Seater Fixed Gear/Pitch

ZS-OFV

Cessna 4 Seater Fixed Gear/Pitch

ZS-OHU

Piper 4 Seater Fixed Gear Fixed Pitch

ZS-PNV

Cessna 2 Seater Trainer

ZS-PSL

Cessna 4 Seater Fixed Gear/Pitch

ZS-PZD

Cessna 2 Seater Trainer

ZS-PZF

CESSNA Cessna 182T - Private

ZS-RIO

CESSNA Cessna 182T - Private

ZS-SAA

Cessna 4 Seater Fixed Gear/Pitch

ZS-SAE

Cessna 4 Seater Fixed Gear/Pitch

ZS-SCP

Cessna 2 Seater Trainer

ZS-SSG

Cessna 2 Seater Trainer

ZS-SVC

Cessna 4 Seater Fixed Gear/Pitch

ZS-DWC

Cessna 2 Seater Trainer

FAOR METAR 301430Z 04008KT 350V120 CAVOK 26/M10 Q1027 NOSIG
FALA METAR 301400Z 36009KT 340V040 CAVOK 28/M05 Q1026 NOSIG

GASSER ABDO

GROUND INSTRUCTOR

WASEEM BADROODIEN

INSTRUCTOR

ZAINAB BHABHA

INSTRUCTOR

WERNER BOTHA

INSTRUCTOR

VUMILE DLAMINI

INSTRUCTOR

JACO DREYER

INSTRUCTOR, CFI

JACQUES GALE

INSTRUCTOR

AVINASH LOTCHER

INSTRUCTOR

SIMBARASHE MAVHERA

INSTRUCTOR

TSHWANELO MOROOSELE

INSTRUCTOR

MLONDI MTHETHWA

INSTRUCTOR

XABISO NTLOKO

INSTRUCTOR

TAFADZWA NYAKUDYA

INSTRUCTOR

DANIEL VAN DER MERWE

INSTRUCTOR, CGI

NTULI ZELDAH

INSTRUCTOR

FAOR TAF 301000Z 3012/3118 02008KT CAVOK    FM310800 01013KT CAVOK    TX27/3013ZTN15/3104Z
FALA TAF 301000Z 3012/3112 03005KT CAVOK    BECMG 3020/3022 VRB03KT    BECMG 3102/3104 02006KT    FM310800 01010KT CAVOK    TX28/3014ZTN10/3104Z

Briefing1

Briefing room 1

 05h0006h0007h0008h0009h0010h0011h0012h0013h0014h0015h0016h0017h0018h0019h0020h0021h00

index.php last modified on Wed 13 Jun 2012 7:48 PM